sensor_id;sensor_type;location;lat;lon;timestamp;temperature;humidity
14061;DHT22;7105;43.616;1.434;2023-03-20T00:03:49;10.50;99.90
14061;DHT22;7105;43.616;1.434;2023-03-20T00:06:21;10.50;99.90
14061;DHT22;7105;43.616;1.434;2023-03-20T00:08:48;10.50;99.90
14061;DHT22;7105;43.616;1.434;2023-03-20T00:11:27;10.50;99.90
14061;DHT22;7105;43.616;1.434;2023-03-20T00:13:56;10.60;99.90
14061;DHT22;7105;43.616;1.434;2023-03-20T00:16:26;10.60;99.90
14061;DHT22;7105;43.616;1.434;2023-03-20T00:18:52;10.70;99.90
14061;DHT22;7105;43.616;1.434;2023-03-20T00:21:18;10.60;99.90
14061;DHT22;7105;43.616;1.434;2023-03-20T00:23:45;10.60;99.90
14061;DHT22;7105;43.616;1.434;2023-03-20T00:26:17;10.70;99.90
14061;DHT22;7105;43.616;1.434;2023-03-20T00:28:45;10.70;99.90
14061;DHT22;7105;43.616;1.434;2023-03-20T00:33:43;10.60;99.90
14061;DHT22;7105;43.616;1.434;2023-03-20T00:36:10;10.70;99.90
14061;DHT22;7105;43.616;1.434;2023-03-20T00:38:35;10.70;99.90
14061;DHT22;7105;43.616;1.434;2023-03-20T00:41:02;10.60;99.90
14061;DHT22;7105;43.616;1.434;2023-03-20T00:43:28;10.70;99.90
14061;DHT22;7105;43.616;1.434;2023-03-20T00:45:53;10.60;99.90
14061;DHT22;7105;43.616;1.434;2023-03-20T00:48:19;10.60;99.90
14061;DHT22;7105;43.616;1.434;2023-03-20T00:50:45;10.60;99.90
14061;DHT22;7105;43.616;1.434;2023-03-20T00:53:11;10.50;99.90
14061;DHT22;7105;43.616;1.434;2023-03-20T00:55:38;10.50;99.90
14061;DHT22;7105;43.616;1.434;2023-03-20T00:58:05;10.40;99.90
14061;DHT22;7105;43.616;1.434;2023-03-20T01:00:40;10.40;99.90
14061;DHT22;7105;43.616;1.434;2023-03-20T01:03:26;10.40;99.90
14061;DHT22;7105;43.616;1.434;2023-03-20T01:05:54;10.20;99.90
14061;DHT22;7105;43.616;1.434;2023-03-20T01:08:23;10.20;99.90
14061;DHT22;7105;43.616;1.434;2023-03-20T01:10:52;10.10;99.90
14061;DHT22;7105;43.616;1.434;2023-03-20T01:13:20;10.20;99.90
14061;DHT22;7105;43.616;1.434;2023-03-20T01:15:47;10.10;99.90
14061;DHT22;7105;43.616;1.434;2023-03-20T01:18:15;10.10;99.90
14061;DHT22;7105;43.616;1.434;2023-03-20T01:20:41;10.00;99.90
14061;DHT22;7105;43.616;1.434;2023-03-20T01:23:07;10.00;99.90
14061;DHT22;7105;43.616;1.434;2023-03-20T01:25:33;10.00;99.90
14061;DHT22;7105;43.616;1.434;2023-03-20T01:27:59;10.00;99.90
14061;DHT22;7105;43.616;1.434;2023-03-20T01:30:30;10.00;99.90
14061;DHT22;7105;43.616;1.434;2023-03-20T01:32:56;9.90;99.90
14061;DHT22;7105;43.616;1.434;2023-03-20T01:35:26;9.90;99.90
14061;DHT22;7105;43.616;1.434;2023-03-20T01:37:53;9.90;99.90
14061;DHT22;7105;43.616;1.434;2023-03-20T01:40:31;9.90;99.90
14061;DHT22;7105;43.616;1.434;2023-03-20T01:42:58;9.90;99.90
14061;DHT22;7105;43.616;1.434;2023-03-20T01:45:30;9.90;99.90
14061;DHT22;7105;43.616;1.434;2023-03-20T01:47:56;9.70;99.90
14061;DHT22;7105;43.616;1.434;2023-03-20T01:50:25;9.70;99.90
14061;DHT22;7105;43.616;1.434;2023-03-20T01:52:59;9.70;99.90
14061;DHT22;7105;43.616;1.434;2023-03-20T01:55:27;9.70;99.90
14061;DHT22;7105;43.616;1.434;2023-03-20T01:57:54;9.70;99.90
14061;DHT22;7105;43.616;1.434;2023-03-20T02:00:21;9.60;99.90
14061;DHT22;7105;43.616;1.434;2023-03-20T02:02:48;9.60;99.90
14061;DHT22;7105;43.616;1.434;2023-03-20T02:05:17;9.50;99.90
14061;DHT22;7105;43.616;1.434;2023-03-20T02:07:55;9.50;99.90
14061;DHT22;7105;43.616;1.434;2023-03-20T02:10:23;9.50;99.90
14061;DHT22;7105;43.616;1.434;2023-03-20T02:12:53;9.50;99.90
14061;DHT22;7105;43.616;1.434;2023-03-20T02:15:18;9.50;99.90
14061;DHT22;7105;43.616;1.434;2023-03-20T02:17:44;9.60;99.90
14061;DHT22;7105;43.616;1.434;2023-03-20T02:23:12;9.50;99.90
14061;DHT22;7105;43.616;1.434;2023-03-20T02:26:02;9.60;99.90
14061;DHT22;7105;43.616;1.434;2023-03-20T02:34:10;9.80;99.90
14061;DHT22;7105;43.616;1.434;2023-03-20T02:40:20;9.80;99.90
14061;DHT22;7105;43.616;1.434;2023-03-20T02:43:24;9.80;99.90
14061;DHT22;7105;43.616;1.434;2023-03-20T02:45:41;9.60;99.90
14061;DHT22;7105;43.616;1.434;2023-03-20T02:48:12;9.60;99.90
14061;DHT22;7105;43.616;1.434;2023-03-20T02:50:48;9.60;99.90
14061;DHT22;7105;43.616;1.434;2023-03-20T02:56:23;9.50;99.90
14061;DHT22;7105;43.616;1.434;2023-03-20T02:59:04;9.50;99.90
14061;DHT22;7105;43.616;1.434;2023-03-20T03:01:45;9.40;99.90
14061;DHT22;7105;43.616;1.434;2023-03-20T03:04:17;9.60;99.90
14061;DHT22;7105;43.616;1.434;2023-03-20T03:06:46;9.30;99.90
14061;DHT22;7105;43.616;1.434;2023-03-20T03:10:06;9.30;99.90
14061;DHT22;7105;43.616;1.434;2023-03-20T03:12:20;9.30;99.90
14061;DHT22;7105;43.616;1.434;2023-03-20T03:14:48;9.20;99.90
14061;DHT22;7105;43.616;1.434;2023-03-20T03:17:18;9.20;99.90
14061;DHT22;7105;43.616;1.434;2023-03-20T03:19:48;9.20;99.90
14061;DHT22;7105;43.616;1.434;2023-03-20T03:22:15;9.20;99.90
14061;DHT22;7105;43.616;1.434;2023-03-20T03:24:59;9.00;99.90
14061;DHT22;7105;43.616;1.434;2023-03-20T03:27:30;8.90;99.90
14061;DHT22;7105;43.616;1.434;2023-03-20T03:30:02;8.90;99.90
14061;DHT22;7105;43.616;1.434;2023-03-20T03:32:35;8.80;99.90
14061;DHT22;7105;43.616;1.434;2023-03-20T03:35:03;8.80;99.90
14061;DHT22;7105;43.616;1.434;2023-03-20T03:37:49;8.80;99.90
14061;DHT22;7105;43.616;1.434;2023-03-20T03:40:18;8.70;99.90
14061;DHT22;7105;43.616;1.434;2023-03-20T03:42:55;8.70;99.90
14061;DHT22;7105;43.616;1.434;2023-03-20T03:45:34;8.70;99.90
14061;DHT22;7105;43.616;1.434;2023-03-20T03:50:53;8.80;99.90
14061;DHT22;7105;43.616;1.434;2023-03-20T03:53:21;8.70;99.90
14061;DHT22;7105;43.616;1.434;2023-03-20T03:55:52;8.80;99.90
14061;DHT22;7105;43.616;1.434;2023-03-20T04:00:49;8.60;99.90
14061;DHT22;7105;43.616;1.434;2023-03-20T04:03:19;8.50;99.90
14061;DHT22;7105;43.616;1.434;2023-03-20T04:05:46;8.50;99.90
14061;DHT22;7105;43.616;1.434;2023-03-20T04:08:13;8.50;99.90
14061;DHT22;7105;43.616;1.434;2023-03-20T04:10:40;8.60;99.90
14061;DHT22;7105;43.616;1.434;2023-03-20T04:13:06;8.60;99.90
14061;DHT22;7105;43.616;1.434;2023-03-20T04:15:32;8.50;99.90
14061;DHT22;7105;43.616;1.434;2023-03-20T04:17:58;8.50;99.90
14061;DHT22;7105;43.616;1.434;2023-03-20T04:20:23;8.50;99.90
14061;DHT22;7105;43.616;1.434;2023-03-20T04:22:49;8.50;99.90
14061;DHT22;7105;43.616;1.434;2023-03-20T04:25:23;8.50;99.90
14061;DHT22;7105;43.616;1.434;2023-03-20T04:27:49;8.50;99.90
14061;DHT22;7105;43.616;1.434;2023-03-20T04:30:15;8.50;99.90
14061;DHT22;7105;43.616;1.434;2023-03-20T04:32:41;8.50;99.90
14061;DHT22;7105;43.616;1.434;2023-03-20T04:35:07;8.50;99.90
14061;DHT22;7105;43.616;1.434;2023-03-20T04:37:33;8.60;99.90
14061;DHT22;7105;43.616;1.434;2023-03-20T04:39:58;8.60;99.90
14061;DHT22;7105;43.616;1.434;2023-03-20T04:42:24;8.70;99.90
14061;DHT22;7105;43.616;1.434;2023-03-20T04:44:50;8.70;99.90
14061;DHT22;7105;43.616;1.434;2023-03-20T04:47:16;8.70;99.90
14061;DHT22;7105;43.616;1.434;2023-03-20T04:49:42;8.80;99.90
14061;DHT22;7105;43.616;1.434;2023-03-20T04:52:07;8.80;99.90
14061;DHT22;7105;43.616;1.434;2023-03-20T04:54:33;8.90;99.90
14061;DHT22;7105;43.616;1.434;2023-03-20T04:56:59;8.90;99.90
14061;DHT22;7105;43.616;1.434;2023-03-20T04:59:25;8.90;99.90
14061;DHT22;7105;43.616;1.434;2023-03-20T05:01:51;8.90;99.90
14061;DHT22;7105;43.616;1.434;2023-03-20T05:04:16;8.90;99.90
14061;DHT22;7105;43.616;1.434;2023-03-20T05:06:42;9.00;99.90
14061;DHT22;7105;43.616;1.434;2023-03-20T05:09:09;9.00;99.90
14061;DHT22;7105;43.616;1.434;2023-03-20T05:11:35;9.10;99.90
14061;DHT22;7105;43.616;1.434;2023-03-20T05:14:01;9.10;99.90
14061;DHT22;7105;43.616;1.434;2023-03-20T05:16:26;9.10;99.90
14061;DHT22;7105;43.616;1.434;2023-03-20T05:18:52;9.20;99.90
14061;DHT22;7105;43.616;1.434;2023-03-20T05:21:17;9.20;99.90
14061;DHT22;7105;43.616;1.434;2023-03-20T05:23:43;9.20;99.90
14061;DHT22;7105;43.616;1.434;2023-03-20T05:26:09;9.10;99.90
14061;DHT22;7105;43.616;1.434;2023-03-20T05:28:35;9.20;99.90
14061;DHT22;7105;43.616;1.434;2023-03-20T05:31:01;9.20;99.90
14061;DHT22;7105;43.616;1.434;2023-03-20T05:33:27;9.10;99.90
14061;DHT22;7105;43.616;1.434;2023-03-20T05:35:52;9.10;99.90
14061;DHT22;7105;43.616;1.434;2023-03-20T05:38:18;9.20;99.90
14061;DHT22;7105;43.616;1.434;2023-03-20T05:40:47;9.20;99.90
14061;DHT22;7105;43.616;1.434;2023-03-20T05:43:13;9.10;99.90
14061;DHT22;7105;43.616;1.434;2023-03-20T05:45:41;9.20;99.90
14061;DHT22;7105;43.616;1.434;2023-03-20T05:48:07;9.20;99.90
14061;DHT22;7105;43.616;1.434;2023-03-20T05:50:33;9.30;99.90
14061;DHT22;7105;43.616;1.434;2023-03-20T05:52:58;9.30;99.90
14061;DHT22;7105;43.616;1.434;2023-03-20T05:55:25;9.40;99.90
14061;DHT22;7105;43.616;1.434;2023-03-20T05:57:51;9.40;99.90
14061;DHT22;7105;43.616;1.434;2023-03-20T06:00:17;9.40;99.90
14061;DHT22;7105;43.616;1.434;2023-03-20T06:02:44;9.30;99.90
14061;DHT22;7105;43.616;1.434;2023-03-20T06:05:10;9.20;99.90
14061;DHT22;7105;43.616;1.434;2023-03-20T06:07:36;9.30;99.90
14061;DHT22;7105;43.616;1.434;2023-03-20T06:10:01;9.40;99.90
14061;DHT22;7105;43.616;1.434;2023-03-20T06:12:27;9.40;99.90
14061;DHT22;7105;43.616;1.434;2023-03-20T06:14:55;9.40;99.90
14061;DHT22;7105;43.616;1.434;2023-03-20T06:17:23;9.40;99.90
14061;DHT22;7105;43.616;1.434;2023-03-20T06:19:49;9.50;99.90
14061;DHT22;7105;43.616;1.434;2023-03-20T06:22:15;9.50;99.90
14061;DHT22;7105;43.616;1.434;2023-03-20T06:24:41;9.60;99.90
14061;DHT22;7105;43.616;1.434;2023-03-20T06:27:07;9.70;99.90
14061;DHT22;7105;43.616;1.434;2023-03-20T06:29:33;9.70;99.90
14061;DHT22;7105;43.616;1.434;2023-03-20T06:31:59;9.70;99.90
14061;DHT22;7105;43.616;1.434;2023-03-20T06:34:25;9.70;99.90
14061;DHT22;7105;43.616;1.434;2023-03-20T06:36:51;9.80;99.90
14061;DHT22;7105;43.616;1.434;2023-03-20T06:39:16;9.80;99.90
14061;DHT22;7105;43.616;1.434;2023-03-20T06:41:42;9.70;99.90
14061;DHT22;7105;43.616;1.434;2023-03-20T06:44:08;9.80;99.90
14061;DHT22;7105;43.616;1.434;2023-03-20T06:46:34;9.90;99.90
14061;DHT22;7105;43.616;1.434;2023-03-20T06:49:00;9.90;99.90
14061;DHT22;7105;43.616;1.434;2023-03-20T06:51:26;9.90;99.90
14061;DHT22;7105;43.616;1.434;2023-03-20T06:53:51;9.80;99.90
14061;DHT22;7105;43.616;1.434;2023-03-20T06:56:17;9.90;99.90
14061;DHT22;7105;43.616;1.434;2023-03-20T06:58:43;9.90;99.90
14061;DHT22;7105;43.616;1.434;2023-03-20T07:01:13;10.10;99.90
14061;DHT22;7105;43.616;1.434;2023-03-20T07:03:40;10.20;99.90
14061;DHT22;7105;43.616;1.434;2023-03-20T07:06:06;10.30;99.90
14061;DHT22;7105;43.616;1.434;2023-03-20T07:08:33;10.20;99.90
14061;DHT22;7105;43.616;1.434;2023-03-20T07:10:59;10.20;99.90
14061;DHT22;7105;43.616;1.434;2023-03-20T07:13:25;10.30;99.90
14061;DHT22;7105;43.616;1.434;2023-03-20T07:15:53;10.50;99.90
14061;DHT22;7105;43.616;1.434;2023-03-20T07:18:19;10.50;99.90
14061;DHT22;7105;43.616;1.434;2023-03-20T07:20:45;10.60;99.90
14061;DHT22;7105;43.616;1.434;2023-03-20T07:23:10;10.60;99.90
14061;DHT22;7105;43.616;1.434;2023-03-20T07:25:36;10.60;99.90
14061;DHT22;7105;43.616;1.434;2023-03-20T07:28:03;10.80;99.90
14061;DHT22;7105;43.616;1.434;2023-03-20T07:30:31;10.90;99.90
14061;DHT22;7105;43.616;1.434;2023-03-20T07:32:57;10.80;99.90
14061;DHT22;7105;43.616;1.434;2023-03-20T07:35:22;11.10;99.90
14061;DHT22;7105;43.616;1.434;2023-03-20T07:37:48;11.40;99.90
14061;DHT22;7105;43.616;1.434;2023-03-20T07:40:15;11.20;99.90
14061;DHT22;7105;43.616;1.434;2023-03-20T07:42:40;11.20;99.90
14061;DHT22;7105;43.616;1.434;2023-03-20T07:45:07;11.50;99.90
14061;DHT22;7105;43.616;1.434;2023-03-20T07:47:34;12.40;99.90
14061;DHT22;7105;43.616;1.434;2023-03-20T07:50:00;15.20;99.90
14061;DHT22;7105;43.616;1.434;2023-03-20T07:52:25;15.00;99.90
14061;DHT22;7105;43.616;1.434;2023-03-20T07:54:54;16.50;99.90
14061;DHT22;7105;43.616;1.434;2023-03-20T07:57:23;17.50;99.90
14061;DHT22;7105;43.616;1.434;2023-03-20T07:59:49;18.90;99.90
14061;DHT22;7105;43.616;1.434;2023-03-20T08:02:16;21.00;99.90
14061;DHT22;7105;43.616;1.434;2023-03-20T08:04:43;21.40;99.90
14061;DHT22;7105;43.616;1.434;2023-03-20T08:07:09;19.30;99.90
14061;DHT22;7105;43.616;1.434;2023-03-20T08:09:36;22.10;99.90
14061;DHT22;7105;43.616;1.434;2023-03-20T08:12:02;23.40;99.90
14061;DHT22;7105;43.616;1.434;2023-03-20T08:14:28;24.40;99.90
14061;DHT22;7105;43.616;1.434;2023-03-20T08:16:53;24.60;99.90
14061;DHT22;7105;43.616;1.434;2023-03-20T08:19:19;23.10;99.90
14061;DHT22;7105;43.616;1.434;2023-03-20T08:21:45;23.10;99.90
14061;DHT22;7105;43.616;1.434;2023-03-20T08:24:11;24.30;99.90
14061;DHT22;7105;43.616;1.434;2023-03-20T08:26:37;26.00;99.90
14061;DHT22;7105;43.616;1.434;2023-03-20T08:29:03;22.30;99.90
14061;DHT22;7105;43.616;1.434;2023-03-20T08:31:29;19.60;99.90
14061;DHT22;7105;43.616;1.434;2023-03-20T08:33:56;16.70;99.90
14061;DHT22;7105;43.616;1.434;2023-03-20T08:36:22;15.60;99.90
14061;DHT22;7105;43.616;1.434;2023-03-20T08:38:48;14.60;99.90
14061;DHT22;7105;43.616;1.434;2023-03-20T08:41:15;14.70;99.90
14061;DHT22;7105;43.616;1.434;2023-03-20T08:43:41;16.00;99.90
14061;DHT22;7105;43.616;1.434;2023-03-20T08:46:07;16.30;99.90
14061;DHT22;7105;43.616;1.434;2023-03-20T08:48:33;18.60;99.90
14061;DHT22;7105;43.616;1.434;2023-03-20T08:50:59;21.40;99.90
14061;DHT22;7105;43.616;1.434;2023-03-20T08:53:25;22.30;99.90
14061;DHT22;7105;43.616;1.434;2023-03-20T08:55:52;22.00;99.90
14061;DHT22;7105;43.616;1.434;2023-03-20T08:58:21;23.10;99.90
14061;DHT22;7105;43.616;1.434;2023-03-20T09:00:47;24.00;99.90
14061;DHT22;7105;43.616;1.434;2023-03-20T09:03:14;23.60;99.90
14061;DHT22;7105;43.616;1.434;2023-03-20T09:05:43;22.70;99.90
14061;DHT22;7105;43.616;1.434;2023-03-20T09:08:09;22.50;99.90
14061;DHT22;7105;43.616;1.434;2023-03-20T09:10:34;22.50;99.90
14061;DHT22;7105;43.616;1.434;2023-03-20T09:13:00;21.80;99.90
14061;DHT22;7105;43.616;1.434;2023-03-20T09:15:27;24.90;99.90
14061;DHT22;7105;43.616;1.434;2023-03-20T09:17:53;27.80;99.90
14061;DHT22;7105;43.616;1.434;2023-03-20T09:20:18;24.20;99.90
14061;DHT22;7105;43.616;1.434;2023-03-20T09:22:44;23.00;99.90
14061;DHT22;7105;43.616;1.434;2023-03-20T09:25:11;20.80;99.90
14061;DHT22;7105;43.616;1.434;2023-03-20T09:27:38;16.80;99.90
14061;DHT22;7105;43.616;1.434;2023-03-20T09:30:05;16.80;99.90
14061;DHT22;7105;43.616;1.434;2023-03-20T09:32:32;16.70;99.90
14061;DHT22;7105;43.616;1.434;2023-03-20T09:34:59;15.30;99.90
14061;DHT22;7105;43.616;1.434;2023-03-20T09:37:25;14.10;99.90
14061;DHT22;7105;43.616;1.434;2023-03-20T09:39:53;13.80;99.90
14061;DHT22;7105;43.616;1.434;2023-03-20T09:42:31;13.70;99.90
14061;DHT22;7105;43.616;1.434;2023-03-20T09:53:41;12.70;99.90
14061;DHT22;7105;43.616;1.434;2023-03-20T09:56:28;13.00;99.90
14061;DHT22;7105;43.616;1.434;2023-03-20T09:58:59;13.10;99.90
14061;DHT22;7105;43.616;1.434;2023-03-20T10:01:30;13.10;99.90
14061;DHT22;7105;43.616;1.434;2023-03-20T10:03:59;13.30;99.90
14061;DHT22;7105;43.616;1.434;2023-03-20T10:06:25;13.10;99.90
14061;DHT22;7105;43.616;1.434;2023-03-20T10:08:53;13.10;99.90
14061;DHT22;7105;43.616;1.434;2023-03-20T10:14:57;13.10;99.90
14061;DHT22;7105;43.616;1.434;2023-03-20T10:17:39;13.10;99.90
14061;DHT22;7105;43.616;1.434;2023-03-20T10:23:07;13.20;99.90
14061;DHT22;7105;43.616;1.434;2023-03-20T10:25:44;13.60;99.90
14061;DHT22;7105;43.616;1.434;2023-03-20T10:42:18;12.90;99.90
14061;DHT22;7105;43.616;1.434;2023-03-20T10:44:57;13.00;99.90
14061;DHT22;7105;43.616;1.434;2023-03-20T10:47:28;13.40;99.90
14061;DHT22;7105;43.616;1.434;2023-03-20T10:49:58;13.60;99.90
14061;DHT22;7105;43.616;1.434;2023-03-20T10:52:30;13.60;99.90
14061;DHT22;7105;43.616;1.434;2023-03-20T10:55:00;13.40;99.90
14061;DHT22;7105;43.616;1.434;2023-03-20T10:57:30;13.70;99.90
14061;DHT22;7105;43.616;1.434;2023-03-20T10:59:58;13.70;99.90
14061;DHT22;7105;43.616;1.434;2023-03-20T11:02:28;13.40;99.90
14061;DHT22;7105;43.616;1.434;2023-03-20T11:04:54;13.30;99.90
14061;DHT22;7105;43.616;1.434;2023-03-20T11:07:31;13.70;99.90
14061;DHT22;7105;43.616;1.434;2023-03-20T11:12:46;13.40;99.90
14061;DHT22;7105;43.616;1.434;2023-03-20T11:17:52;13.30;99.90
14061;DHT22;7105;43.616;1.434;2023-03-20T11:20:18;13.10;99.90
14061;DHT22;7105;43.616;1.434;2023-03-20T11:22:46;13.60;99.90
14061;DHT22;7105;43.616;1.434;2023-03-20T11:25:27;13.50;99.90
14061;DHT22;7105;43.616;1.434;2023-03-20T11:27:54;13.40;99.90
14061;DHT22;7105;43.616;1.434;2023-03-20T11:30:21;13.70;99.90
14061;DHT22;7105;43.616;1.434;2023-03-20T11:32:49;14.20;99.90
14061;DHT22;7105;43.616;1.434;2023-03-20T11:38:05;14.40;99.90
14061;DHT22;7105;43.616;1.434;2023-03-20T11:40:32;14.30;99.90
14061;DHT22;7105;43.616;1.434;2023-03-20T11:43:03;14.00;99.90
14061;DHT22;7105;43.616;1.434;2023-03-20T11:45:38;14.10;99.90
14061;DHT22;7105;43.616;1.434;2023-03-20T11:48:06;14.10;99.90
14061;DHT22;7105;43.616;1.434;2023-03-20T11:50:50;14.00;99.90
14061;DHT22;7105;43.616;1.434;2023-03-20T11:53:27;13.80;99.90
14061;DHT22;7105;43.616;1.434;2023-03-20T11:58:28;14.10;99.90
14061;DHT22;7105;43.616;1.434;2023-03-20T12:00:54;14.10;99.90
14061;DHT22;7105;43.616;1.434;2023-03-20T12:03:45;14.10;99.90
14061;DHT22;7105;43.616;1.434;2023-03-20T12:06:20;13.90;99.90
14061;DHT22;7105;43.616;1.434;2023-03-20T12:09:02;14.00;99.90
14061;DHT22;7105;43.616;1.434;2023-03-20T12:11:45;14.20;99.90
14061;DHT22;7105;43.616;1.434;2023-03-20T12:23:05;14.50;99.90
14061;DHT22;7105;43.616;1.434;2023-03-20T12:25:58;14.50;99.90
14061;DHT22;7105;43.616;1.434;2023-03-20T12:28:29;14.70;99.90
14061;DHT22;7105;43.616;1.434;2023-03-20T12:34:37;14.20;99.90
14061;DHT22;7105;43.616;1.434;2023-03-20T12:36:55;14.30;99.90
14061;DHT22;7105;43.616;1.434;2023-03-20T12:39:30;14.30;99.90
14061;DHT22;7105;43.616;1.434;2023-03-20T12:45:38;14.10;99.90
14061;DHT22;7105;43.616;1.434;2023-03-20T12:56:26;14.50;99.90
14061;DHT22;7105;43.616;1.434;2023-03-20T12:59:17;14.70;99.90
14061;DHT22;7105;43.616;1.434;2023-03-20T13:01:57;14.70;99.90
14061;DHT22;7105;43.616;1.434;2023-03-20T13:07:58;14.80;99.90
14061;DHT22;7105;43.616;1.434;2023-03-20T13:10:37;14.80;99.90
14061;DHT22;7105;43.616;1.434;2023-03-20T13:16:08;14.80;99.90
14061;DHT22;7105;43.616;1.434;2023-03-20T13:24:22;15.10;99.90
14061;DHT22;7105;43.616;1.434;2023-03-20T13:29:52;15.50;99.90
14061;DHT22;7105;43.616;1.434;2023-03-20T13:33:19;15.40;99.90
14061;DHT22;7105;43.616;1.434;2023-03-20T13:36:06;15.60;99.90
14061;DHT22;7105;43.616;1.434;2023-03-20T13:38:21;15.40;99.90
14061;DHT22;7105;43.616;1.434;2023-03-20T13:40:57;15.10;99.90
14061;DHT22;7105;43.616;1.434;2023-03-20T13:46:18;15.20;99.90
14061;DHT22;7105;43.616;1.434;2023-03-20T13:48:48;15.40;99.90
14061;DHT22;7105;43.616;1.434;2023-03-20T13:53:54;15.90;99.90
14061;DHT22;7105;43.616;1.434;2023-03-20T13:56:39;16.00;99.90
14061;DHT22;7105;43.616;1.434;2023-03-20T14:04:22;15.90;99.90
14061;DHT22;7105;43.616;1.434;2023-03-20T14:06:56;15.20;99.90
14061;DHT22;7105;43.616;1.434;2023-03-20T14:09:32;15.40;99.90
14061;DHT22;7105;43.616;1.434;2023-03-20T14:12:06;15.70;99.90
14061;DHT22;7105;43.616;1.434;2023-03-20T14:14:56;15.70;99.90
14061;DHT22;7105;43.616;1.434;2023-03-20T14:17:28;15.60;99.90
14061;DHT22;7105;43.616;1.434;2023-03-20T14:19:55;15.80;99.90
14061;DHT22;7105;43.616;1.434;2023-03-20T14:22:44;15.90;99.90
14061;DHT22;7105;43.616;1.434;2023-03-20T14:25:19;16.00;99.90
14061;DHT22;7105;43.616;1.434;2023-03-20T14:27:59;15.70;99.90
14061;DHT22;7105;43.616;1.434;2023-03-20T14:35:41;16.20;99.90
14061;DHT22;7105;43.616;1.434;2023-03-20T14:41:25;15.80;99.90
14061;DHT22;7105;43.616;1.434;2023-03-20T14:44:02;15.90;99.90
14061;DHT22;7105;43.616;1.434;2023-03-20T14:46:39;16.00;99.90
14061;DHT22;7105;43.616;1.434;2023-03-20T14:51:50;16.20;99.90
14061;DHT22;7105;43.616;1.434;2023-03-20T14:54:24;15.80;99.90
14061;DHT22;7105;43.616;1.434;2023-03-20T14:56:51;15.90;99.90
14061;DHT22;7105;43.616;1.434;2023-03-20T14:59:19;15.70;99.90
14061;DHT22;7105;43.616;1.434;2023-03-20T15:04:28;16.30;99.90
14061;DHT22;7105;43.616;1.434;2023-03-20T15:07:02;16.30;99.90
14061;DHT22;7105;43.616;1.434;2023-03-20T15:09:32;15.90;99.90
14061;DHT22;7105;43.616;1.434;2023-03-20T15:11:59;15.90;99.90
14061;DHT22;7105;43.616;1.434;2023-03-20T15:14:35;15.80;99.90
14061;DHT22;7105;43.616;1.434;2023-03-20T15:17:02;15.80;99.90
14061;DHT22;7105;43.616;1.434;2023-03-20T15:19:28;16.10;99.90
14061;DHT22;7105;43.616;1.434;2023-03-20T15:21:54;16.20;99.90
14061;DHT22;7105;43.616;1.434;2023-03-20T15:24:26;16.30;99.90
14061;DHT22;7105;43.616;1.434;2023-03-20T15:26:57;16.20;99.90
14061;DHT22;7105;43.616;1.434;2023-03-20T15:29:24;16.10;99.90
14061;DHT22;7105;43.616;1.434;2023-03-20T15:31:56;16.30;99.90
14061;DHT22;7105;43.616;1.434;2023-03-20T15:34:27;16.30;99.90
14061;DHT22;7105;43.616;1.434;2023-03-20T15:36:58;16.40;99.90
14061;DHT22;7105;43.616;1.434;2023-03-20T15:39:27;16.20;99.90
14061;DHT22;7105;43.616;1.434;2023-03-20T15:41:57;16.40;99.90
14061;DHT22;7105;43.616;1.434;2023-03-20T15:44:25;16.50;99.90
14061;DHT22;7105;43.616;1.434;2023-03-20T15:47:02;16.40;99.90
14061;DHT22;7105;43.616;1.434;2023-03-20T15:49:31;16.50;99.90
14061;DHT22;7105;43.616;1.434;2023-03-20T15:52:14;16.60;99.90
14061;DHT22;7105;43.616;1.434;2023-03-20T15:54:43;16.70;99.90
14061;DHT22;7105;43.616;1.434;2023-03-20T15:57:15;16.60;99.90
14061;DHT22;7105;43.616;1.434;2023-03-20T15:59:42;16.30;99.90
14061;DHT22;7105;43.616;1.434;2023-03-20T16:02:10;16.30;99.90
14061;DHT22;7105;43.616;1.434;2023-03-20T16:04:45;16.30;99.90
14061;DHT22;7105;43.616;1.434;2023-03-20T16:07:25;16.30;99.90
14061;DHT22;7105;43.616;1.434;2023-03-20T16:09:52;16.30;99.90
14061;DHT22;7105;43.616;1.434;2023-03-20T16:12:18;16.30;99.90
14061;DHT22;7105;43.616;1.434;2023-03-20T16:14:49;16.10;99.90
14061;DHT22;7105;43.616;1.434;2023-03-20T16:17:16;16.20;99.90
14061;DHT22;7105;43.616;1.434;2023-03-20T16:19:43;16.10;99.90
14061;DHT22;7105;43.616;1.434;2023-03-20T16:22:27;16.10;99.90
14061;DHT22;7105;43.616;1.434;2023-03-20T16:24:57;16.20;99.90
14061;DHT22;7105;43.616;1.434;2023-03-20T16:27:31;16.20;99.90
14061;DHT22;7105;43.616;1.434;2023-03-20T16:29:58;16.20;99.90
14061;DHT22;7105;43.616;1.434;2023-03-20T16:34:55;16.30;99.90
14061;DHT22;7105;43.616;1.434;2023-03-20T16:37:38;16.30;99.90
14061;DHT22;7105;43.616;1.434;2023-03-20T16:42:48;16.10;99.90
14061;DHT22;7105;43.616;1.434;2023-03-20T16:45:29;15.90;99.90
14061;DHT22;7105;43.616;1.434;2023-03-20T16:50:41;15.90;99.90
14061;DHT22;7105;43.616;1.434;2023-03-20T16:53:17;15.80;99.90
14061;DHT22;7105;43.616;1.434;2023-03-20T16:55:51;15.80;99.90
14061;DHT22;7105;43.616;1.434;2023-03-20T16:58:23;15.90;99.90
14061;DHT22;7105;43.616;1.434;2023-03-20T17:00:57;15.90;99.90
14061;DHT22;7105;43.616;1.434;2023-03-20T17:03:29;15.90;99.90
14061;DHT22;7105;43.616;1.434;2023-03-20T17:06:26;15.80;99.90
14061;DHT22;7105;43.616;1.434;2023-03-20T17:08:55;15.70;99.90
14061;DHT22;7105;43.616;1.434;2023-03-20T17:11:31;15.60;99.90
14061;DHT22;7105;43.616;1.434;2023-03-20T17:13:57;15.50;99.90
14061;DHT22;7105;43.616;1.434;2023-03-20T17:16:23;15.40;99.90
14061;DHT22;7105;43.616;1.434;2023-03-20T17:21:30;15.50;99.90
14061;DHT22;7105;43.616;1.434;2023-03-20T17:23:56;15.40;99.90
14061;DHT22;7105;43.616;1.434;2023-03-20T17:26:22;15.50;99.90
14061;DHT22;7105;43.616;1.434;2023-03-20T17:28:48;15.40;99.90
14061;DHT22;7105;43.616;1.434;2023-03-20T17:31:16;15.30;99.90
14061;DHT22;7105;43.616;1.434;2023-03-20T17:33:42;15.30;99.90
14061;DHT22;7105;43.616;1.434;2023-03-20T17:36:30;15.30;99.90
14061;DHT22;7105;43.616;1.434;2023-03-20T17:38:56;15.20;99.90
14061;DHT22;7105;43.616;1.434;2023-03-20T17:41:23;15.20;99.90
14061;DHT22;7105;43.616;1.434;2023-03-20T17:43:53;15.10;99.90
14061;DHT22;7105;43.616;1.434;2023-03-20T17:46:23;15.10;99.90
14061;DHT22;7105;43.616;1.434;2023-03-20T17:49:02;15.00;99.90
14061;DHT22;7105;43.616;1.434;2023-03-20T17:51:29;15.00;99.90
14061;DHT22;7105;43.616;1.434;2023-03-20T17:53:55;15.00;99.90
14061;DHT22;7105;43.616;1.434;2023-03-20T17:56:23;15.00;99.90
14061;DHT22;7105;43.616;1.434;2023-03-20T17:58:52;14.90;99.90
14061;DHT22;7105;43.616;1.434;2023-03-20T18:01:17;14.80;99.90
14061;DHT22;7105;43.616;1.434;2023-03-20T18:03:43;14.70;99.90
14061;DHT22;7105;43.616;1.434;2023-03-20T18:06:24;14.70;99.90
14061;DHT22;7105;43.616;1.434;2023-03-20T18:08:54;14.80;99.90
14061;DHT22;7105;43.616;1.434;2023-03-20T18:11:20;14.70;99.90
14061;DHT22;7105;43.616;1.434;2023-03-20T18:13:46;14.60;99.90
14061;DHT22;7105;43.616;1.434;2023-03-20T18:16:17;14.60;99.90
14061;DHT22;7105;43.616;1.434;2023-03-20T18:18:44;14.50;99.90
14061;DHT22;7105;43.616;1.434;2023-03-20T18:21:11;14.50;99.90
14061;DHT22;7105;43.616;1.434;2023-03-20T18:23:37;14.40;99.90
14061;DHT22;7105;43.616;1.434;2023-03-20T18:26:03;14.40;99.90